Time;durP1;ratioP1;P1;durP2;ratioP2;P2;SDS_P1;SDS_P2;PMS_P1;PMS_P2;Temp;Humidity;BMP_temperature;BMP_pressure;BME280_temperature;BME280_humidity;BME280_pressure;Samples;Min_cycle;Max_cycle;Signal;HPM_P1;HPM_P2
2024/02/13 00:00:02;;;;;;;4.60;1.23;;;9.10;60.00;;;;;;4632512;30;20114;-81
2024/02/13 00:02:55;;;;;;;2.92;1.13;;;9.20;60.10;;;;;;4627949;30;20057;-83
2024/02/13 00:05:40;;;;;;;1.42;0.95;;;9.10;60.00;;;;;;4634993;30;20102;-83
2024/02/13 00:08:27;;;;;;;3.00;1.52;;;9.20;60.10;;;;;;4632597;30;20545;-83
2024/02/13 00:11:13;;;;;;;2.05;1.15;;;9.20;60.10;;;;;;4617331;30;20101;-83
2024/02/13 00:13:57;;;;;;;2.45;1.00;;;9.20;60.10;;;;;;4631194;30;20094;-83
2024/02/13 00:16:44;;;;;;;1.65;0.82;;;9.10;59.90;;;;;;4622108;30;20425;-83
2024/02/13 00:19:30;;;;;;;2.40;1.20;;;9.20;60.00;;;;;;4633964;30;20046;-82
2024/02/13 00:22:15;;;;;;;3.53;0.98;;;9.20;60.00;;;;;;4608683;30;20054;-83
2024/02/13 00:24:59;;;;;;;3.00;1.10;;;9.20;60.10;;;;;;4629088;30;20054;-84
2024/02/13 00:27:46;;;;;;;2.53;2.33;;;9.20;60.10;;;;;;4634114;30;20145;-83
2024/02/13 00:30:31;;;;;;;1.67;1.05;;;9.10;59.90;;;;;;4628950;30;20085;-83
2024/02/13 00:33:19;;;;;;;2.40;1.40;;;9.20;60.10;;;;;;4620899;30;20061;-81
2024/02/13 00:36:03;;;;;;;2.70;0.90;;;9.20;60.10;;;;;;4616010;30;20210;-85
2024/02/13 00:38:48;;;;;;;2.25;1.10;;;9.20;60.00;;;;;;4630637;30;20484;-84
2024/02/13 00:41:32;;;;;;;1.95;1.00;;;9.20;60.00;;;;;;4627112;30;20496;-86
2024/02/13 00:44:17;;;;;;;2.20;1.00;;;9.20;60.00;;;;;;4620502;30;20368;-84
2024/02/13 00:47:02;;;;;;;2.03;0.85;;;9.20;60.00;;;;;;4632685;30;20162;-84
2024/02/13 00:49:46;;;;;;;2.08;0.90;;;9.20;60.00;;;;;;4628679;30;20058;-84
2024/02/13 00:52:31;;;;;;;3.92;1.20;;;9.20;60.00;;;;;;4631016;30;20053;-88
2024/02/13 00:55:16;;;;;;;2.25;1.33;;;9.20;60.00;;;;;;4621594;30;20137;-89
2024/02/13 00:58:00;;;;;;;2.22;1.08;;;9.20;60.00;;;;;;4627994;30;20045;-88
2024/02/13 01:00:46;;;;;;;2.75;1.05;;;9.20;60.00;;;;;;4637274;30;20285;-86
2024/02/13 01:03:30;;;;;;;1.75;0.90;;;9.10;59.80;;;;;;4631150;30;20499;-87
2024/02/13 01:06:15;;;;;;;3.05;1.05;;;9.20;60.00;;;;;;4631956;30;20053;-89
2024/02/13 01:09:00;;;;;;;2.67;0.75;;;9.20;60.00;;;;;;4633164;30;20199;-87
2024/02/13 01:11:45;;;;;;;0.75;0.60;;;9.10;59.80;;;;;;4634259;30;20152;-87
2024/02/13 01:14:31;;;;;;;3.30;1.70;;;9.10;59.80;;;;;;4618649;30;20046;-84
2024/02/13 01:17:15;;;;;;;5.38;1.65;;;9.10;59.90;;;;;;4632568;30;20102;-81
2024/02/13 01:20:00;;;;;;;1.83;0.93;;;9.10;59.90;;;;;;4635691;30;20517;-81
2024/02/13 01:22:46;;;;;;;3.85;1.30;;;9.10;59.90;;;;;;4638160;30;20056;-83
2024/02/13 01:25:30;;;;;;;2.20;0.93;;;9.00;59.80;;;;;;4618561;30;20519;-81
2024/02/13 01:28:15;;;;;;;3.38;1.10;;;9.00;59.80;;;;;;4636558;30;20489;-82
2024/02/13 01:31:02;;;;;;;4.40;1.00;;;9.00;59.90;;;;;;4631484;30;20053;-82
2024/02/13 01:33:46;;;;;;;2.92;0.93;;;9.00;59.90;;;;;;4631917;30;20114;-81
2024/02/13 01:36:31;;;;;;;1.05;0.68;;;9.00;60.00;;;;;;4615710;30;20051;-81
2024/02/13 01:39:17;;;;;;;4.05;0.90;;;9.00;60.00;;;;;;4619815;30;20055;-81
2024/02/13 01:42:01;;;;;;;1.33;0.68;;;9.00;60.00;;;;;;4620313;30;20054;-85
2024/02/13 01:44:46;;;;;;;3.13;0.65;;;8.90;59.80;;;;;;4634964;30;20054;-84
2024/02/13 01:47:30;;;;;;;2.53;0.90;;;8.90;59.80;;;;;;4623969;30;20054;-81
2024/02/13 01:50:20;;;;;;;1.80;1.20;;;8.90;59.80;;;;;;4630605;30;20436;-85
2024/02/13 01:53:04;;;;;;;3.45;0.90;;;8.80;59.70;;;;;;4635068;30;20627;-82
2024/02/13 01:55:50;;;;;;;2.78;0.73;;;8.80;59.80;;;;;;4633272;30;20121;-84
2024/02/13 01:58:36;;;;;;;2.45;0.80;;;8.80;59.90;;;;;;4630633;30;20129;-84
2024/02/13 02:01:20;;;;;;;2.17;1.27;;;8.70;59.70;;;;;;4617349;30;20043;-87
2024/02/13 02:04:06;;;;;;;1.90;1.00;;;8.70;59.80;;;;;;4618744;30;20503;-86
2024/02/13 02:06:51;;;;;;;1.58;0.98;;;8.70;59.90;;;;;;4637031;30;20057;-87
2024/02/13 02:09:35;;;;;;;2.90;0.93;;;8.60;59.70;;;;;;4627353;30;20077;-85
2024/02/13 02:12:20;;;;;;;2.75;0.65;;;8.60;59.80;;;;;;4623434;30;20066;-84
2024/02/13 02:15:06;;;;;;;2.50;0.77;;;8.60;59.80;;;;;;4631482;30;20042;-86
2024/02/13 02:17:55;;;;;;;2.80;0.73;;;8.60;59.70;;;;;;4649287;30;20050;-86
2024/02/13 02:20:39;;;;;;;1.52;0.70;;;8.60;59.70;;;;;;4653557;30;20091;-84
2024/02/13 02:23:26;;;;;;;1.45;0.57;;;8.60;59.70;;;;;;4652845;30;20053;-83
2024/02/13 02:26:11;;;;;;;1.70;0.70;;;8.60;59.70;;;;;;4636809;30;20046;-86
2024/02/13 02:28:56;;;;;;;1.33;0.68;;;8.60;59.70;;;;;;4656182;30;20134;-84
2024/02/13 02:31:41;;;;;;;4.05;0.90;;;8.60;59.80;;;;;;4636926;30;20537;-84
2024/02/13 02:34:26;;;;;;;1.83;0.70;;;8.60;59.80;;;;;;4632114;30;20065;-84
2024/02/13 02:37:12;;;;;;;2.70;0.70;;;8.60;59.80;;;;;;4624752;30;20655;-83
2024/02/13 02:39:57;;;;;;;1.58;0.82;;;8.60;59.80;;;;;;4629611;30;20913;-84
2024/02/13 02:42:47;;;;;;;2.15;1.17;;;8.60;59.80;;;;;;4632905;30;20455;-82
2024/02/13 02:45:31;;;;;;;5.05;0.70;;;8.50;59.60;;;;;;4633427;30;20407;-83
2024/02/13 02:48:23;;;;;;;1.25;0.60;;;8.60;59.80;;;;;;5239421;25;20169;-78
2024/02/13 02:51:07;;;;;;;0.80;0.50;;;8.60;59.80;;;;;;4622194;30;20419;-78
2024/02/13 02:53:52;;;;;;;0.95;0.55;;;8.60;59.80;;;;;;4635363;30;20096;-77
2024/02/13 02:56:38;;;;;;;1.60;0.93;;;8.50;59.60;;;;;;4633577;30;20480;-78
2024/02/13 02:59:23;;;;;;;1.33;0.60;;;8.60;59.80;;;;;;4637953;30;20061;-78
2024/02/13 03:02:08;;;;;;;1.08;0.88;;;8.50;59.60;;;;;;4623586;30;20098;-78
2024/02/13 03:04:54;;;;;;;1.17;0.50;;;8.60;59.80;;;;;;4611341;30;20137;-77
2024/02/13 03:07:39;;;;;;;0.73;0.60;;;8.60;59.70;;;;;;4631298;30;20054;-77
2024/02/13 03:10:23;;;;;;;2.35;0.60;;;8.60;59.70;;;;;;4639097;30;20518;-77
2024/02/13 03:13:08;;;;;;;1.50;0.60;;;8.60;59.70;;;;;;4602908;30;20396;-78
2024/02/13 03:15:53;;;;;;;1.33;0.95;;;8.60;59.70;;;;;;4632731;30;20134;-75
2024/02/13 03:18:37;;;;;;;2.25;0.70;;;8.60;59.70;;;;;;4634562;30;20081;-77
2024/02/13 03:21:22;;;;;;;1.50;0.75;;;8.60;59.70;;;;;;4637048;30;20053;-77
2024/02/13 03:24:07;;;;;;;2.00;0.50;;;8.60;59.60;;;;;;4614199;30;20104;-77
2024/02/13 03:26:52;;;;;;;2.08;0.50;;;8.60;59.60;;;;;;4638516;30;20061;-77
2024/02/13 03:29:37;;;;;;;0.85;0.50;;;8.60;59.60;;;;;;4621413;30;20070;-78
2024/02/13 03:32:21;;;;;;;0.70;0.60;;;8.60;59.60;;;;;;4638455;30;20061;-78
2024/02/13 03:35:07;;;;;;;1.92;0.68;;;8.60;59.60;;;;;;4637922;30;20046;-78
2024/02/13 03:37:52;;;;;;;1.77;0.70;;;8.60;59.60;;;;;;4636402;30;20547;-78
2024/02/13 03:40:36;;;;;;;2.08;0.65;;;8.60;59.60;;;;;;4611794;30;20054;-77
2024/02/13 03:43:21;;;;;;;2.75;0.60;;;8.60;59.60;;;;;;4622722;30;20146;-77
2024/02/13 03:46:06;;;;;;;1.23;0.82;;;8.60;59.60;;;;;;4623316;30;20058;-78
2024/02/13 03:48:50;;;;;;;1.25;0.63;;;8.60;59.60;;;;;;4632261;30;20066;-77
2024/02/13 03:51:38;;;;;;;0.82;0.50;;;8.60;59.60;;;;;;4625107;30;20045;-77
2024/02/13 03:54:22;;;;;;;1.25;0.50;;;8.60;59.60;;;;;;4624092;30;20847;-77
2024/02/13 03:57:07;;;;;;;2.50;0.68;;;8.60;59.60;;;;;;4636283;30;20036;-78
2024/02/13 03:59:52;;;;;;;3.08;0.85;;;8.60;59.60;;;;;;4625457;30;20598;-77
2024/02/13 04:02:39;;;;;;;1.95;0.65;;;8.60;59.60;;;;;;4622482;30;20145;-78
2024/02/13 04:05:24;;;;;;;1.63;0.60;;;8.70;59.70;;;;;;4608912;30;20049;-78
2024/02/13 04:08:09;;;;;;;1.95;0.65;;;8.70;59.70;;;;;;4636627;30;20697;-78
2024/02/13 04:10:54;;;;;;;1.98;1.05;;;8.70;59.70;;;;;;4640357;30;20045;-76
2024/02/13 04:13:40;;;;;;;1.15;0.80;;;8.70;59.70;;;;;;4633100;30;20093;-77
2024/02/13 04:16:24;;;;;;;0.85;0.50;;;8.70;59.70;;;;;;4635122;30;20095;-77
2024/02/13 04:19:12;;;;;;;1.90;0.50;;;8.70;59.60;;;;;;4634537;30;20523;-78
2024/02/13 04:21:56;;;;;;;2.05;0.60;;;8.70;59.60;;;;;;4620585;30;20049;-77
2024/02/13 04:24:41;;;;;;;1.08;0.60;;;8.70;59.60;;;;;;4612170;30;20455;-77
2024/02/13 04:27:25;;;;;;;0.93;0.60;;;8.70;59.60;;;;;;4613717;30;20065;-77
2024/02/13 04:30:12;;;;;;;1.08;0.47;;;8.70;59.60;;;;;;4636474;30;20880;-77
2024/02/13 04:32:56;;;;;;;3.17;0.98;;;8.70;59.50;;;;;;4636467;30;20101;-77
2024/02/13 04:35:41;;;;;;;1.17;0.55;;;8.80;59.70;;;;;;4632770;30;20053;-77
2024/02/13 04:38:28;;;;;;;1.77;0.50;;;8.80;59.70;;;;;;4623401;30;20122;-77
2024/02/13 04:41:13;;;;;;;2.40;0.63;;;8.70;59.50;;;;;;4637396;30;20062;-77
2024/02/13 04:43:58;;;;;;;1.63;0.75;;;8.80;59.70;;;;;;4638725;30;20146;-77
2024/02/13 04:46:43;;;;;;;2.00;0.65;;;8.80;59.70;;;;;;4626936;30;20090;-77
2024/02/13 04:49:27;;;;;;;1.08;0.50;;;8.80;59.70;;;;;;4621053;30;20065;-77
2024/02/13 04:52:13;;;;;;;1.90;0.60;;;8.70;59.50;;;;;;4641264;30;20727;-77
2024/02/13 04:54:58;;;;;;;0.77;0.73;;;8.80;59.70;;;;;;4639525;30;20046;-78
2024/02/13 04:57:42;;;;;;;1.20;0.60;;;8.80;59.70;;;;;;4639340;30;20050;-77
2024/02/13 05:00:29;;;;;;;3.40;0.95;;;8.80;59.70;;;;;;4638570;30;20046;-78
2024/02/13 05:03:17;;;;;;;2.53;0.77;;;8.80;59.60;;;;;;4628356;30;20106;-77
2024/02/13 05:09:05;;;;;;;1.20;1.05;;;8.80;59.60;;;;;;4637945;30;20058;-77
2024/02/13 05:11:50;;;;;;;1.75;0.55;;;8.80;59.60;;;;;;4641093;30;20114;-78
2024/02/13 05:14:34;;;;;;;1.65;0.90;;;8.80;59.60;;;;;;4626739;30;20054;-76
2024/02/13 05:17:20;;;;;;;1.40;0.60;;;8.90;59.80;;;;;;4627972;30;20070;-77
2024/02/13 05:20:11;;;;;;;1.58;0.60;;;8.80;59.60;;;;;;4640913;30;20046;-77
2024/02/13 05:22:56;;;;;;;0.60;0.35;;;8.80;59.60;;;;;;4628393;30;20151;-78
2024/02/13 05:25:41;;;;;;;0.70;0.38;;;8.80;59.60;;;;;;4636227;30;20118;-78
2024/02/13 05:28:26;;;;;;;1.45;0.75;;;8.90;59.80;;;;;;4629938;30;20062;-80
2024/02/13 05:31:14;;;;;;;1.98;0.90;;;8.80;59.60;;;;;;4643382;30;20089;-77
2024/02/13 05:33:59;;;;;;;1.80;0.80;;;8.90;59.80;;;;;;4642655;30;20353;-76
2024/02/13 05:36:43;;;;;;;3.88;0.85;;;8.90;59.80;;;;;;4641891;30;20046;-77
2024/02/13 05:39:30;;;;;;;2.28;1.30;;;8.80;59.60;;;;;;4628714;30;20058;-77
2024/02/13 05:42:15;;;;;;;1.17;0.50;;;8.80;59.60;;;;;;4640062;30;20073;-79
2024/02/13 05:45:00;;;;;;;2.10;0.70;;;8.80;59.60;;;;;;4628745;30;20054;-79
2024/02/13 05:47:48;;;;;;;0.98;0.70;;;8.90;59.80;;;;;;4628973;30;20062;-79
2024/02/13 05:50:32;;;;;;;2.35;0.50;;;8.90;59.80;;;;;;4636431;30;20590;-79
2024/02/13 05:53:17;;;;;;;1.10;0.43;;;8.90;59.80;;;;;;4638024;30;20103;-79
2024/02/13 05:56:02;;;;;;;0.50;0.30;;;8.90;59.80;;;;;;4635562;30;20633;-79
2024/02/13 05:58:47;;;;;;;0.40;0.40;;;8.90;59.80;;;;;;4622153;30;20687;-79
2024/02/13 06:01:33;;;;;;;1.20;0.47;;;8.90;59.70;;;;;;4637364;30;20411;-79
2024/02/13 06:04:17;;;;;;;1.85;0.52;;;9.00;59.90;;;;;;4622109;30;20081;-79
2024/02/13 06:07:02;;;;;;;1.70;0.50;;;9.00;59.90;;;;;;4618832;30;20364;-79
2024/02/13 06:09:48;;;;;;;0.65;0.45;;;8.90;59.70;;;;;;4637236;30;20085;-79
2024/02/13 06:12:32;;;;;;;1.95;0.70;;;8.90;59.70;;;;;;4632582;30;20065;-79
2024/02/13 06:15:17;;;;;;;1.30;0.40;;;8.90;59.80;;;;;;4647131;30;20129;-78
2024/02/13 06:18:01;;;;;;;2.05;0.68;;;9.00;60.00;;;;;;4608027;30;20050;-79
2024/02/13 06:20:45;;;;;;;2.28;0.50;;;8.90;59.80;;;;;;4634306;30;20441;-79
2024/02/13 06:23:30;;;;;;;0.68;0.40;;;8.90;59.80;;;;;;4634812;30;20065;-79
2024/02/13 06:26:19;;;;;;;4.18;1.40;;;8.90;59.80;;;;;;4634528;30;20224;-79
2024/02/13 06:29:05;;;;;;;0.47;0.43;;;8.90;59.80;;;;;;4615893;30;20128;-78
2024/02/13 06:31:54;;;;;;;0.60;0.40;;;9.00;60.00;;;;;;4635339;30;20382;-78
2024/02/13 06:34:39;;;;;;;2.08;0.40;;;8.90;59.80;;;;;;4637641;30;20558;-77
2024/02/13 06:37:24;;;;;;;1.75;0.45;;;9.00;60.00;;;;;;4619832;30;20049;-78
2024/02/13 06:40:09;;;;;;;1.83;0.50;;;9.00;60.00;;;;;;4624693;30;20108;-78
2024/02/13 06:42:54;;;;;;;1.20;0.70;;;9.00;59.90;;;;;;4637238;30;20045;-76
2024/02/13 06:45:39;;;;;;;1.77;0.50;;;9.00;59.90;;;;;;4639999;30;20049;-78
2024/02/13 06:48:23;;;;;;;4.00;0.68;;;9.00;60.00;;;;;;4636636;30;20454;-75
2024/02/13 06:51:12;;;;;;;4.78;0.50;;;9.10;60.60;;;;;;4632278;30;20082;-76
2024/02/13 06:54:00;;;;;;;1.60;0.68;;;9.20;61.10;;;;;;4621948;30;20605;-77
2024/02/13 06:56:45;;;;;;;1.95;0.50;;;9.30;61.40;;;;;;4637707;30;20080;-76
2024/02/13 06:59:29;;;;;;;11.55;3.05;;;9.30;61.40;;;;;;4624474;30;20042;-76
2024/02/13 07:02:14;;;;;;;21.02;4.90;;;9.30;61.40;;;;;;4616986;30;20061;-77
2024/02/13 07:04:59;;;;;;;33.28;8.75;;;9.40;61.70;;;;;;4635255;30;20509;-76
2024/02/13 07:07:43;;;;;;;25.52;8.05;;;9.40;61.90;;;;;;4635984;30;20054;-75
2024/02/13 07:10:28;;;;;;;24.73;5.45;;;9.40;62.10;;;;;;4631889;30;20097;-77
2024/02/13 07:13:13;;;;;;;15.75;5.40;;;9.50;62.50;;;;;;4634016;30;20046;-76
2024/02/13 07:15:57;;;;;;;19.40;4.72;;;9.50;62.60;;;;;;4630661;30;20150;-76
2024/02/13 07:18:42;;;;;;;13.10;4.07;;;9.60;62.90;;;;;;4635174;30;20082;-76
2024/02/13 07:21:27;;;;;;;17.60;3.88;;;9.60;63.10;;;;;;4628561;30;20110;-76
2024/02/13 07:24:12;;;;;;;12.30;3.85;;;9.60;63.20;;;;;;4630383;30;20050;-76
2024/02/13 07:26:57;;;;;;;12.65;4.00;;;9.70;63.50;;;;;;4626114;30;20089;-75
2024/02/13 07:29:42;;;;;;;22.88;4.18;;;9.70;63.60;;;;;;4636641;30;20542;-75
2024/02/13 07:32:26;;;;;;;12.38;2.97;;;9.80;63.90;;;;;;4636608;30;20062;-76
2024/02/13 07:35:11;;;;;;;7.78;2.42;;;9.80;64.00;;;;;;4633882;30;20098;-76
2024/02/13 07:37:55;;;;;;;11.52;3.38;;;9.90;64.30;;;;;;4632685;30;20165;-76
2024/02/13 07:40:40;;;;;;;8.27;2.03;;;9.90;64.30;;;;;;4620209;30;20058;-74
2024/02/13 07:43:25;;;;;;;9.68;2.35;;;9.90;64.40;;;;;;4625542;30;20061;-75
2024/02/13 07:46:11;;;;;;;8.05;2.08;;;10.00;64.70;;;;;;4633648;30;20527;-75
2024/02/13 07:48:56;;;;;;;3.13;1.90;;;10.00;64.80;;;;;;4626108;30;20579;-75
2024/02/13 07:51:40;;;;;;;6.65;1.75;;;10.00;64.80;;;;;;4634603;30;20440;-75
2024/02/13 07:54:28;;;;;;;5.45;1.33;;;10.10;65.10;;;;;;4632107;30;20480;-74
2024/02/13 07:57:16;;;;;;;3.08;1.42;;;10.10;65.20;;;;;;4635522;30;20097;-74
2024/02/13 08:00:03;;;;;;;7.13;1.40;;;10.20;65.40;;;;;;4632719;30;20081;-74
2024/02/13 08:02:51;;;;;;;3.78;1.13;;;10.20;65.40;;;;;;4634942;30;20073;-75
2024/02/13 08:05:37;;;;;;;4.40;1.02;;;10.30;65.60;;;;;;4634577;30;20074;-73
2024/02/13 08:08:21;;;;;;;3.25;1.05;;;10.30;65.60;;;;;;4620818;30;20058;-73
2024/02/13 08:11:06;;;;;;;4.68;1.48;;;10.30;65.70;;;;;;4634464;30;20105;-73
2024/02/13 08:13:54;;;;;;;4.93;1.40;;;10.50;66.90;;;;;;4616530;30;20083;-73
2024/02/13 08:16:40;;;;;;;3.58;1.30;;;10.80;66.80;;;;;;4634329;30;20489;-73
2024/02/13 08:19:26;;;;;;;3.78;1.08;;;11.00;66.80;;;;;;4611401;30;20042;-73
2024/02/13 08:22:10;;;;;;;3.55;1.85;;;11.40;66.90;;;;;;4628223;30;20635;-73
2024/02/13 08:24:54;;;;;;;3.42;1.00;;;11.70;66.90;;;;;;4620433;30;20053;-73
2024/02/13 08:27:40;;;;;;;2.65;1.00;;;11.90;66.70;;;;;;4633463;30;20519;-73
2024/02/13 08:30:25;;;;;;;1.35;0.75;;;12.20;66.70;;;;;;4634621;30;20800;-73
2024/02/13 08:33:10;;;;;;;3.63;0.90;;;12.40;66.50;;;;;;4621236;30;20083;-73
2024/02/13 08:35:56;;;;;;;3.10;1.30;;;12.60;66.40;;;;;;4633874;30;20100;-73
2024/02/13 08:38:43;;;;;;;1.73;0.82;;;12.80;66.30;;;;;;4621097;30;20094;-73
2024/02/13 08:41:27;;;;;;;4.22;0.95;;;13.00;66.20;;;;;;4633740;30;20053;-73
2024/02/13 08:44:13;;;;;;;1.75;0.90;;;13.20;66.20;;;;;;4633032;30;20122;-73
2024/02/13 08:46:58;;;;;;;3.30;0.77;;;13.30;66.00;;;;;;4632612;30;20098;-73
2024/02/13 08:49:44;;;;;;;1.70;0.60;;;13.50;66.00;;;;;;4633646;30;20074;-73
2024/02/13 08:52:28;;;;;;;3.53;0.90;;;13.60;65.90;;;;;;4635384;30;20109;-73
2024/02/13 08:55:15;;;;;;;2.78;0.60;;;13.70;65.70;;;;;;4632716;30;20098;-73
2024/02/13 08:58:00;;;;;;;1.05;0.50;;;13.90;65.70;;;;;;4606957;30;20053;-73
2024/02/13 09:00:45;;;;;;;3.47;0.80;;;14.00;65.50;;;;;;4629367;30;20128;-73
2024/02/13 09:03:29;;;;;;;1.60;0.60;;;14.10;65.30;;;;;;4639454;30;20049;-73
2024/02/13 09:06:15;;;;;;;1.88;0.77;;;14.20;65.20;;;;;;4630413;30;20053;-73
2024/02/13 09:09:00;;;;;;;2.67;1.10;;;14.30;65.10;;;;;;4621174;30;20070;-73
2024/02/13 09:11:45;;;;;;;1.85;0.75;;;14.40;65.00;;;;;;4641800;30;20417;-73
2024/02/13 09:14:33;;;;;;;1.42;0.82;;;14.50;64.90;;;;;;4607694;30;20074;-73
2024/02/13 09:17:18;;;;;;;1.33;0.52;;;14.60;64.80;;;;;;4636215;30;20061;-73
2024/02/13 09:20:05;;;;;;;1.13;0.50;;;14.70;64.70;;;;;;4633509;30;20054;-73
2024/02/13 09:22:50;;;;;;;1.67;0.50;;;14.80;64.50;;;;;;4631956;30;20102;-73
2024/02/13 09:25:38;;;;;;;2.00;0.50;;;14.90;64.40;;;;;;4635444;30;20232;-73
2024/02/13 09:28:23;;;;;;;2.13;0.50;;;15.00;64.20;;;;;;4636760;30;20058;-73
2024/02/13 09:31:10;;;;;;;0.68;0.68;;;15.10;64.10;;;;;;4634269;30;20128;-73
2024/02/13 09:33:54;;;;;;;1.00;0.40;;;15.20;64.00;;;;;;4637861;30;20475;-73
2024/02/13 09:36:40;;;;;;;1.88;0.75;;;15.20;63.70;;;;;;4625820;30;20266;-73
2024/02/13 09:39:24;;;;;;;1.75;0.57;;;15.30;63.70;;;;;;4634485;30;20526;-73
2024/02/13 09:42:09;;;;;;;0.68;0.47;;;15.40;63.50;;;;;;4641358;30;20086;-73
2024/02/13 09:44:54;;;;;;;1.20;0.35;;;15.50;63.40;;;;;;4629202;30;20097;-73
2024/02/13 09:47:39;;;;;;;0.95;0.60;;;15.60;63.20;;;;;;4635920;30;20074;-73
2024/02/13 09:50:29;;;;;;;1.45;0.60;;;15.60;62.90;;;;;;4633330;30;20064;-73
2024/02/13 09:53:36;;;;;;;2.47;0.50;;;15.70;62.80;;;;;;4640779;30;20097;-73
2024/02/13 09:56:21;;;;;;;1.38;0.50;;;15.80;62.50;;;;;;4637983;30;20057;-73
2024/02/13 09:59:06;;;;;;;0.70;0.25;;;15.90;62.70;;;;;;4639639;30;20082;-73
2024/02/13 10:01:52;;;;;;;1.02;0.47;;;15.90;62.40;;;;;;4622422;30;20089;-74
2024/02/13 10:04:36;;;;;;;2.30;0.43;;;15.90;62.10;;;;;;4623656;30;20049;-73
2024/02/13 10:07:22;;;;;;;1.77;0.47;;;16.00;62.10;;;;;;4639248;30;20133;-74
2024/02/13 10:10:12;;;;;;;1.63;0.75;;;16.10;62.00;;;;;;4637359;30;20078;-73
2024/02/13 10:12:59;;;;;;;0.88;0.30;;;16.10;61.70;;;;;;4633091;30;20609;-73
2024/02/13 10:15:44;;;;;;;1.65;0.43;;;16.20;62.10;;;;;;4635080;30;20093;-73
2024/02/13 10:18:29;;;;;;;4.32;0.70;;;16.30;61.40;;;;;;4637880;30;20550;-73
2024/02/13 10:21:15;;;;;;;0.57;0.38;;;16.40;61.20;;;;;;4624563;30;20050;-73
2024/02/13 10:24:13;;;;;;;1.23;0.40;;;16.50;61.00;;;;;;4628213;30;20117;-73
2024/02/13 10:27:00;;;;;;;1.40;0.82;;;16.60;60.70;;;;;;4640547;30;20492;-73
2024/02/13 10:29:47;;;;;;;1.90;0.40;;;16.60;60.70;;;;;;4639967;30;20129;-73
2024/02/13 10:32:38;;;;;;;0.88;0.40;;;16.60;60.60;;;;;;4644587;30;20057;-73
2024/02/13 10:35:23;;;;;;;0.68;0.32;;;16.60;60.40;;;;;;4641132;30;20082;-73
2024/02/13 10:38:10;;;;;;;0.80;0.32;;;16.60;60.30;;;;;;4639530;30;20145;-74
2024/02/13 10:40:57;;;;;;;0.75;0.40;;;16.60;60.20;;;;;;4616362;30;20090;-74
2024/02/13 10:43:42;;;;;;;1.08;0.50;;;16.60;60.20;;;;;;4642367;30;20146;-74
2024/02/13 10:46:28;;;;;;;1.88;0.50;;;16.50;60.00;;;;;;4627171;30;20109;-73
2024/02/13 10:49:38;;;;;;;0.88;0.45;;;16.60;60.00;;;;;;4631380;30;20539;-73
2024/02/13 10:52:24;;;;;;;1.25;0.57;;;16.50;59.60;;;;;;4624395;30;20045;-73
2024/02/13 10:55:12;;;;;;;1.40;0.50;;;16.50;59.70;;;;;;4634918;30;20132;-74
2024/02/13 10:57:58;;;;;;;2.10;0.60;;;16.50;59.50;;;;;;4636267;30;20061;-74
2024/02/13 11:00:43;;;;;;;0.75;0.38;;;16.50;59.50;;;;;;4634044;30;20467;-74
2024/02/13 11:03:29;;;;;;;1.90;0.70;;;16.50;59.40;;;;;;4612933;30;20571;-73
2024/02/13 11:06:15;;;;;;;0.88;0.38;;;16.50;59.30;;;;;;4617008;30;20049;-73
2024/02/13 11:09:00;;;;;;;1.27;0.50;;;16.50;59.20;;;;;;4645270;30;20092;-74
2024/02/13 11:11:44;;;;;;;1.60;0.40;;;16.50;59.00;;;;;;4624063;30;20053;-73
2024/02/13 11:14:29;;;;;;;0.55;0.35;;;16.50;59.00;;;;;;4631214;30;20038;-73
2024/02/13 11:17:13;;;;;;;1.20;0.60;;;16.50;58.80;;;;;;4635072;30;20080;-73
2024/02/13 11:19:58;;;;;;;1.38;0.35;;;16.50;58.70;;;;;;4622432;30;20151;-73
2024/02/13 11:22:56;;;;;;;1.05;0.63;;;16.50;58.60;;;;;;4635347;30;20053;-73
2024/02/13 11:25:44;;;;;;;0.98;0.52;;;16.50;58.40;;;;;;4617711;30;20637;-73
2024/02/13 11:28:33;;;;;;;1.00;0.50;;;16.50;58.50;;;;;;4634429;30;20054;-73
2024/02/13 11:31:17;;;;;;;0.88;0.30;;;16.50;58.40;;;;;;4625074;30;20433;-73
2024/02/13 11:34:03;;;;;;;0.52;0.20;;;16.40;58.20;;;;;;4622458;30;20081;-73
2024/02/13 11:36:50;;;;;;;0.75;0.30;;;16.50;58.30;;;;;;4633921;30;20479;-73
2024/02/13 11:39:35;;;;;;;0.70;0.60;;;16.40;58.00;;;;;;4635237;30;20442;-73
2024/02/13 11:42:23;;;;;;;2.22;0.40;;;16.50;58.10;;;;;;4625540;30;20519;-73
2024/02/13 11:45:18;;;;;;;0.88;0.30;;;16.50;58.00;;;;;;4618972;30;20078;-73
2024/02/13 11:48:03;;;;;;;0.57;0.30;;;16.50;57.80;;;;;;4620538;30;20061;-72
2024/02/13 11:50:49;;;;;;;0.88;0.30;;;16.50;57.70;;;;;;4638686;30;20172;-75
2024/02/13 11:53:34;;;;;;;1.02;0.32;;;16.60;57.70;;;;;;4633591;30;20530;-75
2024/02/13 11:56:20;;;;;;;0.40;0.30;;;16.60;57.50;;;;;;4622490;30;20106;-75
2024/02/13 11:59:05;;;;;;;1.88;0.30;;;16.60;57.40;;;;;;4638380;30;20149;-75
2024/02/13 12:01:52;;;;;;;0.82;0.43;;;16.60;57.30;;;;;;4634005;30;20362;-75
2024/02/13 12:04:37;;;;;;;0.68;0.32;;;16.60;57.20;;;;;;4635856;30;20218;-76
2024/02/13 12:07:23;;;;;;;1.23;0.30;;;16.60;57.10;;;;;;4637110;30;20149;-75
2024/02/13 12:10:10;;;;;;;1.23;0.40;;;16.70;57.20;;;;;;4624391;30;20066;-72
2024/02/13 12:12:55;;;;;;;0.52;0.25;;;16.70;57.10;;;;;;4638135;30;20115;-72
2024/02/13 12:15:39;;;;;;;0.50;0.50;;;16.70;57.00;;;;;;4640439;30;20057;-73
2024/02/13 12:18:30;;;;;;;0.88;0.20;;;16.70;56.90;;;;;;4635093;30;20126;-72
2024/02/13 12:21:16;;;;;;;1.13;0.50;;;16.80;56.80;;;;;;4628866;30;20113;-72
2024/02/13 12:24:01;;;;;;;0.43;0.30;;;16.80;56.70;;;;;;4628828;30;20491;-72
2024/02/13 12:26:47;;;;;;;0.47;0.40;;;16.90;56.70;;;;;;4631377;30;20423;-76
2024/02/13 12:29:38;;;;;;;0.28;0.20;;;17.10;56.90;;;;;;4640014;30;20590;-75
2024/02/13 12:32:23;;;;;;;0.82;0.30;;;17.20;56.60;;;;;;4618688;30;20411;-75
2024/02/13 12:35:21;;;;;;;0.85;0.30;;;17.30;56.40;;;;;;4640243;30;20090;-75
2024/02/13 12:38:12;;;;;;;0.98;0.40;;;17.50;56.60;;;;;;4638335;30;20073;-73
2024/02/13 12:40:56;;;;;;;0.17;0.10;;;17.60;56.30;;;;;;4633264;30;20116;-73
2024/02/13 12:43:44;;;;;;;0.40;0.20;;;17.70;56.40;;;;;;4637604;30;20077;-73
2024/02/13 12:46:34;;;;;;;0.10;0.10;;;17.70;56.10;;;;;;4620132;30;20065;-73
2024/02/13 12:49:22;;;;;;;0.43;0.10;;;17.80;56.20;;;;;;4620195;30;20542;-73
2024/02/13 12:52:06;;;;;;;0.85;0.40;;;17.80;56.10;;;;;;4637628;30;20262;-73
2024/02/13 12:54:52;;;;;;;0.80;0.30;;;17.90;56.10;;;;;;4638732;30;20065;-73
2024/02/13 12:57:36;;;;;;;1.90;0.40;;;17.90;56.60;;;;;;4642769;30;20049;-74
2024/02/13 13:00:22;;;;;;;2.22;0.63;;;18.00;56.00;;;;;;4642416;30;20460;-74
2024/02/13 13:03:07;;;;;;;1.40;0.85;;;18.00;55.80;;;;;;4631298;30;20131;-73
2024/02/13 13:05:52;;;;;;;1.30;0.55;;;18.10;55.90;;;;;;4639633;30;20061;-73
2024/02/13 13:08:40;;;;;;;0.55;0.35;;;18.20;55.90;;;;;;4639280;30;20137;-75
2024/02/13 13:11:25;;;;;;;0.98;0.35;;;18.20;55.70;;;;;;4636128;30;20057;-74
2024/02/13 13:14:11;;;;;;;0.20;0.20;;;18.30;55.80;;;;;;4638600;30;20110;-73
2024/02/13 13:16:56;;;;;;;1.40;0.30;;;18.30;55.60;;;;;;4642721;30;20049;-73
2024/02/13 13:19:43;;;;;;;1.00;0.38;;;18.40;55.50;;;;;;4628583;30;20042;-74
2024/02/13 13:22:29;;;;;;;0.73;0.30;;;18.50;55.60;;;;;;4637709;30;20066;-74
2024/02/13 13:25:20;;;;;;;1.40;0.30;;;18.40;55.30;;;;;;4617917;30;20519;-74
2024/02/13 13:28:05;;;;;;;0.52;0.30;;;18.40;55.30;;;;;;4633513;30;20062;-73
2024/02/13 13:30:54;;;;;;;1.85;0.40;;;18.60;55.60;;;;;;4622978;30;20226;-74
2024/02/13 13:33:38;;;;;;;0.43;0.40;;;18.60;55.30;;;;;;4632862;30;20088;-74
2024/02/13 13:36:22;;;;;;;0.20;0.20;;;18.70;55.20;;;;;;4635127;30;20065;-74
2024/02/13 13:39:10;;;;;;;0.93;0.30;;;18.80;55.20;;;;;;4633581;30;20568;-75
2024/02/13 13:41:55;;;;;;;0.75;0.30;;;18.90;55.10;;;;;;4620196;30;20547;-74
2024/02/13 13:44:40;;;;;;;0.32;0.20;;;19.10;55.20;;;;;;4632871;30;20061;-74
2024/02/13 13:47:24;;;;;;;0.20;0.20;;;19.10;55.00;;;;;;4622725;30;20083;-74
2024/02/13 13:50:17;;;;;;;0.35;0.20;;;19.10;54.80;;;;;;4627138;30;20062;-75
2024/02/13 13:53:01;;;;;;;0.60;0.43;;;19.10;54.80;;;;;;4637461;30;20106;-75
2024/02/13 13:55:46;;;;;;;0.40;0.20;;;19.10;55.00;;;;;;4635352;30;20606;-74
2024/02/13 13:58:32;;;;;;;0.20;0.20;;;19.10;55.50;;;;;;4638001;30;20281;-73
2024/02/13 14:01:16;;;;;;;0.95;0.38;;;19.00;54.90;;;;;;4619686;30;20082;-75
2024/02/13 14:04:03;;;;;;;1.58;0.50;;;19.00;54.80;;;;;;4638343;30;20487;-74
2024/02/13 14:06:47;;;;;;;1.02;0.20;;;19.10;54.90;;;;;;4624153;30;20054;-75
2024/02/13 14:09:31;;;;;;;0.20;0.20;;;19.20;54.90;;;;;;4636406;30;20404;-75
2024/02/13 14:12:16;;;;;;;0.45;0.20;;;19.20;54.60;;;;;;4625655;30;20540;-75
2024/02/13 14:15:01;;;;;;;0.20;0.20;;;19.30;54.70;;;;;;4619275;30;20184;-75
2024/02/13 14:17:46;;;;;;;0.43;0.20;;;19.30;54.50;;;;;;4631775;30;20050;-74
2024/02/13 14:20:36;;;;;;;0.20;0.17;;;19.30;54.50;;;;;;4624248;30;20053;-74
2024/02/13 14:23:20;;;;;;;0.68;0.30;;;19.30;54.60;;;;;;4637803;30;20152;-75
2024/02/13 14:26:05;;;;;;;0.88;0.30;;;19.20;54.40;;;;;;4644627;30;20065;-74
2024/02/13 14:28:49;;;;;;;0.80;0.10;;;19.30;54.60;;;;;;4646433;30;20437;-76
2024/02/13 14:31:34;;;;;;;0.13;0.10;;;19.30;54.40;;;;;;4632881;30;20120;-74